Airfield :
LOGIN :

Register | Disclaimer

   EN    FR    IT 

 










Legend :    VFR   Marginal VFR   IFR   Intensive IFR   Very Intensive IFR
Visi :
Ceiling :
>= 8 km
>= 3000ft
5 to 8 km
1000 to 3000 ft
1500m to 5 km
500 to 1000 ft
800 to 1500m
200 to 500 ft
< 800m
< 200 ft
Symbols :   Thunderstorms  Fog  Heavy snow  Heavy precipitations  Wind > 20 kt
SIGMETs :     Misc.  Thunderstorms  Icing  Turbulence  Mountain Waves  Volcanic Ashes






- Airport Elevation : 26 ft
- IATA code : GLA


EGPF - Glasgow

CURRENT METAR :
  • 242250Z AUTO 21011KT 1800 -DZ BKN006 OVC010 08/07 Q1016

EXPIRED METARs :
  • 242220Z AUTO 21011KT 2400 -RADZ BKN005 OVC010 08/07 Q1016
  • 242150Z AUTO 20011KT 2600 BR BKN006 OVC017 08/07 Q1017
  • 242120Z AUTO 22011KT 3500 BR BKN006 OVC009 08/07 Q1017
  • 242050Z AUTO 21013KT 4300 BR BKN005 OVC034 08/07 Q1017
  • 242020Z AUTO 21012KT 3700 BR BKN005 OVC008 08/08 Q1017

TAF TAF EGPF
Valid from the 24 at 18:00 until the 25 at 18:00 UTC


241701Z 2418/2518 23009KT 9999 BKN016
TEMPO 2418/2501 6000 -DZ BKN006
PROB40
TEMPO 2418/2424 2000 DZ BKN003
TEMPO 2501/2515 BKN012
PROB40
TEMPO 2504/2515 7000 -DZ
PROB30
TEMPO 2509/2518 22015G25KT
ATIS : +44 141 887 7449



MET'MAP, your aeronautical weather chart ! - Copyright ORBIFLY December 2007 - Disclaimer

ORBIFLY MET'MAP TEAM :

Programming & Development : Alexandra Zaïnal
Concept & original design : Baudouin d'Aumeries
Assistance for programming : Marc-Olivier Méhu
Technical & hardware support : Manuel Goepfert

Contact : metmap@orbifly.com




SOURCES & CREDITS :

   NOAA